Time;durP1;ratioP1;P1;durP2;ratioP2;P2;SDS_P1;SDS_P2;PMS_P1;PMS_P2;Temp;Humidity;BMP_temperature;BMP_pressure;BME280_temperature;BME280_humidity;BME280_pressure;Samples;Min_cycle;Max_cycle;Signal;HPM_P1;HPM_P2
2021/11/23 00:00:37;;;;;;;5.57;4.27;;;1.60;99.90;;;;;;5058874;28;21066;-71
2021/11/23 00:03:06;;;;;;;9.20;6.70;;;1.60;99.90;;;;;;5059155;28;20458;-69
2021/11/23 00:05:34;;;;;;;4.40;3.20;;;1.70;99.90;;;;;;5058068;28;20944;-68
2021/11/23 00:08:03;;;;;;;12.60;6.27;;;1.60;99.90;;;;;;5057843;28;20465;-71
2021/11/23 00:10:30;;;;;;;5.40;4.53;;;1.30;99.90;;;;;;5051483;28;20500;-69
2021/11/23 00:12:57;;;;;;;5.87;5.30;;;1.20;99.90;;;;;;5058997;28;20428;-67
2021/11/23 00:15:24;;;;;;;9.70;5.23;;;1.40;99.90;;;;;;5058497;28;20446;-71
2021/11/23 00:17:51;;;;;;;6.80;4.70;;;1.40;99.90;;;;;;5076351;28;20421;-68
2021/11/23 00:20:20;;;;;;;6.50;4.03;;;1.50;99.90;;;;;;5063159;28;20910;-67
2021/11/23 00:22:47;;;;;;;8.10;5.57;;;1.50;99.90;;;;;;5052946;28;20453;-68
2021/11/23 00:25:14;;;;;;;5.00;4.13;;;1.50;99.90;;;;;;5060132;28;20452;-67
2021/11/23 00:27:41;;;;;;;5.20;3.87;;;1.40;99.90;;;;;;5059141;28;20462;-72
2021/11/23 00:30:09;;;;;;;4.43;4.03;;;1.50;99.90;;;;;;5064265;28;20529;-70
2021/11/23 00:32:36;;;;;;;6.83;4.57;;;1.50;99.90;;;;;;5054105;28;20586;-66
2021/11/23 00:35:03;;;;;;;7.20;4.73;;;1.40;99.90;;;;;;5063023;28;20461;-69
2021/11/23 00:37:32;;;;;;;8.53;5.07;;;1.30;99.90;;;;;;5064079;28;20445;-71
2021/11/23 00:39:59;;;;;;;6.77;3.90;;;1.30;99.90;;;;;;5057543;28;20797;-69
2021/11/23 00:42:26;;;;;;;5.67;3.83;;;1.40;99.90;;;;;;5054346;28;20925;-70
2021/11/23 00:44:53;;;;;;;14.00;6.93;;;1.40;99.90;;;;;;5070344;28;20594;-68
2021/11/23 00:47:21;;;;;;;7.27;4.83;;;1.30;99.90;;;;;;5067265;28;20461;-69
2021/11/23 00:49:48;;;;;;;7.37;3.90;;;1.30;99.90;;;;;;5067072;28;20461;-69
2021/11/23 00:52:17;;;;;;;7.40;3.97;;;1.30;99.90;;;;;;5046184;28;20692;-71
2021/11/23 00:54:46;;;;;;;10.90;4.20;;;1.30;99.90;;;;;;5060796;28;20552;-68
2021/11/23 00:57:13;;;;;;;7.03;4.23;;;1.30;99.90;;;;;;5061721;28;20617;-70
2021/11/23 00:59:40;;;;;;;4.90;3.60;;;1.20;99.90;;;;;;5061831;28;20483;-68
2021/11/23 01:02:07;;;;;;;7.60;4.20;;;1.20;99.90;;;;;;5059734;28;20523;-69
2021/11/23 01:04:35;;;;;;;8.50;4.67;;;1.30;99.90;;;;;;5062989;28;20645;-70
2021/11/23 01:07:02;;;;;;;5.73;4.27;;;1.20;99.90;;;;;;5051775;28;20816;-72
2021/11/23 01:09:29;;;;;;;5.13;4.57;;;1.30;99.90;;;;;;5051307;28;20457;-72
2021/11/23 01:11:58;;;;;;;11.50;8.07;;;1.30;99.90;;;;;;5053246;28;20621;-70
2021/11/23 01:14:26;;;;;;;5.77;4.23;;;1.30;99.90;;;;;;5059652;28;20525;-69
2021/11/23 01:16:53;;;;;;;4.07;2.80;;;1.30;99.90;;;;;;5058392;28;20505;-67
2021/11/23 01:19:21;;;;;;;4.13;2.83;;;1.40;99.90;;;;;;5054918;28;20722;-71
2021/11/23 01:21:48;;;;;;;5.43;4.27;;;1.40;99.90;;;;;;5063356;28;20438;-70
2021/11/23 01:24:16;;;;;;;6.53;5.30;;;1.30;99.90;;;;;;5065872;28;20493;-67
2021/11/23 01:26:43;;;;;;;6.10;4.50;;;1.40;99.90;;;;;;5058178;28;20471;-71
2021/11/23 01:29:12;;;;;;;5.97;3.50;;;1.30;99.90;;;;;;5047365;28;20572;-72
2021/11/23 01:31:40;;;;;;;10.30;5.60;;;1.30;99.90;;;;;;5051966;28;20432;-69
2021/11/23 01:34:07;;;;;;;4.80;4.40;;;1.30;99.90;;;;;;5056907;28;20448;-71
2021/11/23 01:36:34;;;;;;;4.90;3.97;;;1.30;99.90;;;;;;5058813;28;20434;-69
2021/11/23 01:39:01;;;;;;;3.70;3.33;;;1.30;99.90;;;;;;5063145;28;20498;-68
2021/11/23 01:41:28;;;;;;;8.60;4.67;;;1.30;99.90;;;;;;5065826;28;20458;-69
2021/11/23 01:43:55;;;;;;;4.53;3.03;;;1.20;99.90;;;;;;5059249;28;21165;-70
2021/11/23 01:46:24;;;;;;;5.87;3.70;;;1.10;99.90;;;;;;5070979;28;20495;-68
2021/11/23 01:48:51;;;;;;;4.77;4.27;;;1.10;99.90;;;;;;5066519;28;20541;-67
2021/11/23 01:51:18;;;;;;;5.97;4.40;;;1.10;99.90;;;;;;5054471;28;20495;-72
2021/11/23 01:53:46;;;;;;;4.00;3.60;;;1.10;99.90;;;;;;5052059;28;20560;-72
2021/11/23 01:56:13;;;;;;;7.13;3.40;;;1.00;99.90;;;;;;5051681;28;20548;-70
2021/11/23 01:58:41;;;;;;;8.90;4.60;;;1.00;99.90;;;;;;5059765;28;20466;-69
2021/11/23 02:01:08;;;;;;;6.60;3.20;;;1.00;99.90;;;;;;5057600;28;20457;-69
2021/11/23 02:03:37;;;;;;;9.00;3.30;;;1.00;99.90;;;;;;5047426;28;20458;-67
2021/11/23 02:06:05;;;;;;;9.80;3.30;;;1.00;99.90;;;;;;5069333;28;20458;-68
2021/11/23 02:08:33;;;;;;;9.17;4.03;;;1.00;99.90;;;;;;5073204;28;20502;-69
2021/11/23 02:11:00;;;;;;;6.47;3.93;;;1.00;99.90;;;;;;5082376;28;20882;-68
2021/11/23 02:13:29;;;;;;;9.50;5.10;;;1.10;99.90;;;;;;5076386;28;20989;-71
2021/11/23 02:15:56;;;;;;;6.90;4.30;;;1.00;99.90;;;;;;5072352;28;20461;-71
2021/11/23 02:18:24;;;;;;;6.00;4.67;;;1.10;99.90;;;;;;5062079;28;22152;-70
2021/11/23 02:20:53;;;;;;;8.80;5.53;;;1.10;99.90;;;;;;5070684;28;21231;-68
2021/11/23 02:23:21;;;;;;;7.97;4.67;;;1.10;99.90;;;;;;5063561;28;20466;-68
2021/11/23 02:25:49;;;;;;;5.30;4.80;;;1.30;99.90;;;;;;5058456;28;20598;-68
2021/11/23 02:28:19;;;;;;;7.13;4.10;;;1.20;99.90;;;;;;5059672;28;20857;-70
2021/11/23 02:30:48;;;;;;;9.20;4.93;;;1.30;99.90;;;;;;5065991;28;20452;-68
2021/11/23 02:33:17;;;;;;;5.30;4.00;;;1.40;99.90;;;;;;5065480;28;20836;-68
2021/11/23 02:35:45;;;;;;;5.20;4.20;;;1.50;99.90;;;;;;5068917;28;20457;-68
2021/11/23 02:38:14;;;;;;;5.70;3.83;;;1.60;99.90;;;;;;5067670;28;20435;-69
2021/11/23 02:40:41;;;;;;;7.80;4.00;;;1.70;99.90;;;;;;5070785;28;20448;-69
2021/11/23 02:43:08;;;;;;;5.90;4.27;;;1.80;99.90;;;;;;5054321;28;20476;-69
2021/11/23 02:45:35;;;;;;;2.60;2.33;;;1.90;99.90;;;;;;5064865;28;20420;-68
2021/11/23 02:48:04;;;;;;;14.07;6.27;;;2.00;99.90;;;;;;5060586;28;20417;-68
2021/11/23 02:50:31;;;;;;;8.53;4.50;;;2.00;99.90;;;;;;5063989;28;20551;-68
2021/11/23 02:52:58;;;;;;;6.27;4.30;;;2.20;99.90;;;;;;5061552;28;20522;-68
2021/11/23 02:55:29;;;;;;;6.13;4.40;;;2.30;99.90;;;;;;5066219;28;20509;-69
2021/11/23 02:57:56;;;;;;;4.20;3.53;;;2.50;99.90;;;;;;5061165;28;20978;-72
2021/11/23 03:00:25;;;;;;;5.53;5.00;;;2.60;99.90;;;;;;5058771;28;20469;-68
2021/11/23 03:02:54;;;;;;;8.50;5.40;;;2.70;99.90;;;;;;5066400;28;20472;-67
2021/11/23 03:05:22;;;;;;;6.67;3.90;;;2.70;99.90;;;;;;5069694;28;20447;-70
2021/11/23 03:07:51;;;;;;;15.90;4.80;;;2.90;99.90;;;;;;5064975;28;20442;-71
2021/11/23 03:10:20;;;;;;;9.97;5.03;;;3.00;99.90;;;;;;5062013;28;21401;-68
2021/11/23 03:12:51;;;;;;;7.67;5.60;;;3.10;99.90;;;;;;5061673;28;20810;-70
2021/11/23 03:15:20;;;;;;;5.17;4.20;;;3.00;99.90;;;;;;5046829;28;20640;-69
2021/11/23 03:17:47;;;;;;;7.00;5.57;;;3.20;99.90;;;;;;5061290;28;20948;-69
2021/11/23 03:20:18;;;;;;;8.80;4.83;;;3.30;99.90;;;;;;5062154;28;20456;-68
2021/11/23 03:22:45;;;;;;;6.13;4.07;;;3.30;99.90;;;;;;5067492;28;20469;-69
2021/11/23 03:25:13;;;;;;;7.63;5.40;;;3.30;99.90;;;;;;5067512;28;20466;-69
2021/11/23 03:27:40;;;;;;;14.70;7.20;;;3.40;99.90;;;;;;5058186;28;20974;-70
2021/11/23 03:30:12;;;;;;;8.10;5.43;;;3.50;99.90;;;;;;5055178;28;20485;-71
2021/11/23 03:32:39;;;;;;;11.50;4.10;;;3.70;99.90;;;;;;5064060;28;21061;-69
2021/11/23 03:35:08;;;;;;;10.80;5.17;;;3.80;99.90;;;;;;5062243;28;20490;-70
2021/11/23 03:37:36;;;;;;;7.10;5.53;;;3.80;99.90;;;;;;5061188;28;20460;-71
2021/11/23 03:40:05;;;;;;;14.00;5.13;;;3.80;99.90;;;;;;5066590;28;20470;-70
2021/11/23 03:42:32;;;;;;;12.20;5.90;;;3.80;99.90;;;;;;5066371;28;20498;-69
2021/11/23 03:44:59;;;;;;;6.77;4.57;;;3.90;99.90;;;;;;5062325;28;20441;-69
2021/11/23 03:47:30;;;;;;;6.90;4.70;;;3.90;99.90;;;;;;5060059;28;20548;-67
2021/11/23 03:49:57;;;;;;;13.27;6.10;;;4.00;99.90;;;;;;5058724;28;20874;-69
2021/11/23 03:52:25;;;;;;;11.40;6.03;;;4.10;99.90;;;;;;5060199;28;20461;-69
2021/11/23 03:54:53;;;;;;;8.30;6.33;;;4.20;99.90;;;;;;5048993;28;20950;-70
2021/11/23 03:57:20;;;;;;;8.53;5.80;;;4.20;99.90;;;;;;5056507;28;20431;-70
2021/11/23 03:59:48;;;;;;;9.70;7.97;;;4.20;99.90;;;;;;5060842;28;20845;-68
2021/11/23 04:02:16;;;;;;;8.87;6.67;;;4.30;99.90;;;;;;5060891;28;20461;-71
2021/11/23 04:04:45;;;;;;;10.97;7.13;;;4.20;99.90;;;;;;5055870;28;20428;-66
2021/11/23 04:07:12;;;;;;;10.20;5.40;;;4.20;99.90;;;;;;5056713;28;20453;-67
2021/11/23 04:09:40;;;;;;;8.23;5.07;;;4.30;99.90;;;;;;5046815;28;20468;-69
2021/11/23 04:12:08;;;;;;;8.60;6.67;;;4.30;99.90;;;;;;5060665;28;21018;-68
2021/11/23 04:14:36;;;;;;;7.00;4.00;;;4.30;99.90;;;;;;5062042;28;21476;-68
2021/11/23 04:17:03;;;;;;;12.40;6.10;;;4.30;99.90;;;;;;5058573;28;20457;-68
2021/11/23 04:19:31;;;;;;;9.67;6.43;;;4.40;99.90;;;;;;5049584;28;21181;-69
2021/11/23 04:22:00;;;;;;;8.63;5.73;;;4.40;99.90;;;;;;5047899;28;20506;-69
2021/11/23 04:24:27;;;;;;;10.87;5.13;;;4.50;99.90;;;;;;5057912;28;20784;-66
2021/11/23 04:26:54;;;;;;;10.20;5.53;;;4.60;99.90;;;;;;5053934;28;20485;-68
2021/11/23 04:29:22;;;;;;;6.97;4.37;;;4.50;99.90;;;;;;5062950;28;20915;-70
2021/11/23 04:31:49;;;;;;;8.90;4.97;;;4.60;99.90;;;;;;5061721;28;20603;-68
2021/11/23 04:34:16;;;;;;;9.13;5.70;;;4.60;99.90;;;;;;5061122;28;20439;-67
2021/11/23 04:36:44;;;;;;;7.47;5.10;;;4.60;99.90;;;;;;5060402;28;20482;-67
2021/11/23 04:39:12;;;;;;;8.60;6.70;;;4.50;99.90;;;;;;5065432;28;20478;-71
2021/11/23 04:41:40;;;;;;;10.37;5.87;;;4.50;99.90;;;;;;5058242;28;20617;-69
2021/11/23 04:44:07;;;;;;;5.17;4.67;;;4.50;99.90;;;;;;5059401;28;20822;-68
2021/11/23 04:46:34;;;;;;;6.50;5.00;;;4.50;99.90;;;;;;5063175;28;20490;-70
2021/11/23 04:49:02;;;;;;;12.70;6.30;;;4.60;99.90;;;;;;5060179;28;20445;-70
2021/11/23 04:51:29;;;;;;;9.17;5.67;;;4.70;99.90;;;;;;5055962;28;20512;-69
2021/11/23 04:53:56;;;;;;;10.20;6.70;;;4.70;99.90;;;;;;5056953;28;20578;-69
2021/11/23 04:56:25;;;;;;;8.83;6.07;;;4.80;99.90;;;;;;5055108;28;20557;-70
2021/11/23 04:58:54;;;;;;;12.17;4.67;;;4.70;99.90;;;;;;5056923;28;20478;-70
2021/11/23 05:01:21;;;;;;;13.00;6.00;;;4.70;99.90;;;;;;5067299;28;20458;-69
2021/11/23 05:03:49;;;;;;;7.07;4.90;;;4.90;99.90;;;;;;5058119;28;20806;-70
2021/11/23 05:06:16;;;;;;;6.73;5.43;;;4.80;99.90;;;;;;5054597;28;20969;-71
2021/11/23 05:08:43;;;;;;;7.17;4.83;;;4.80;99.90;;;;;;5054690;28;20486;-67
2021/11/23 05:11:10;;;;;;;11.53;6.20;;;4.80;99.90;;;;;;5059804;28;20491;-68
2021/11/23 05:13:40;;;;;;;18.20;5.60;;;4.70;99.90;;;;;;5054766;28;20548;-70
2021/11/23 05:16:08;;;;;;;9.97;6.07;;;4.70;99.90;;;;;;5065558;28;20505;-71
2021/11/23 05:18:35;;;;;;;5.40;4.90;;;4.70;99.90;;;;;;5061387;28;20536;-67
2021/11/23 05:21:02;;;;;;;11.93;5.30;;;4.80;99.90;;;;;;5066513;28;20512;-66
2021/11/23 05:23:29;;;;;;;10.20;6.73;;;4.80;99.90;;;;;;5068540;28;20559;-69
2021/11/23 05:25:58;;;;;;;6.50;5.77;;;4.80;99.90;;;;;;5059920;28;20900;-69
2021/11/23 05:28:25;;;;;;;6.77;5.70;;;4.80;99.90;;;;;;5056606;28;20447;-72
2021/11/23 05:30:54;;;;;;;10.17;5.40;;;4.80;99.90;;;;;;5045779;28;20474;-68
2021/11/23 05:33:22;;;;;;;5.50;4.33;;;4.80;99.90;;;;;;5051217;28;20950;-70
2021/11/23 05:35:51;;;;;;;15.13;6.53;;;4.90;99.90;;;;;;5055869;28;20588;-69
2021/11/23 05:38:18;;;;;;;8.33;5.40;;;5.00;99.90;;;;;;5058935;28;20570;-70
2021/11/23 05:40:46;;;;;;;7.63;4.47;;;5.00;99.90;;;;;;5057497;28;20456;-72
2021/11/23 05:43:14;;;;;;;5.10;3.83;;;4.90;99.90;;;;;;5062705;28;20436;-69
2021/11/23 05:45:41;;;;;;;6.13;5.10;;;4.90;99.90;;;;;;5064639;28;21664;-68
2021/11/23 05:48:10;;;;;;;6.03;4.97;;;4.80;99.90;;;;;;5061534;28;20467;-67
2021/11/23 05:50:37;;;;;;;6.83;5.60;;;4.70;99.90;;;;;;5067006;28;20482;-66
2021/11/23 05:53:04;;;;;;;14.57;7.33;;;4.70;99.90;;;;;;5059012;28;20657;-71
2021/11/23 05:55:33;;;;;;;9.87;5.53;;;4.60;99.90;;;;;;5043925;28;20494;-68
2021/11/23 05:58:00;;;;;;;16.00;5.80;;;4.70;99.90;;;;;;5064264;28;21003;-69
2021/11/23 06:00:27;;;;;;;16.20;7.30;;;4.70;99.90;;;;;;5066895;28;20487;-69
2021/11/23 06:02:55;;;;;;;9.03;4.77;;;4.70;99.90;;;;;;5066253;28;20918;-69
2021/11/23 06:05:23;;;;;;;7.30;4.63;;;4.70;99.90;;;;;;5065814;28;24672;-72
2021/11/23 06:07:51;;;;;;;12.60;7.10;;;4.70;99.90;;;;;;5061917;28;20465;-68
2021/11/23 06:10:18;;;;;;;12.67;6.53;;;4.80;99.90;;;;;;5071180;28;20483;-71
2021/11/23 06:12:45;;;;;;;15.63;6.57;;;4.70;99.90;;;;;;5067702;28;20456;-69
2021/11/23 06:15:13;;;;;;;8.70;7.30;;;4.70;99.90;;;;;;5071055;28;20441;-68
2021/11/23 06:17:41;;;;;;;12.73;6.13;;;4.70;99.90;;;;;;5068720;28;20867;-68
2021/11/23 06:20:09;;;;;;;15.57;6.60;;;4.80;99.90;;;;;;5067321;28;20481;-68
2021/11/23 06:22:38;;;;;;;12.30;7.80;;;4.90;99.90;;;;;;5060784;28;21496;-69
2021/11/23 06:25:08;;;;;;;11.77;8.10;;;4.80;99.90;;;;;;5063349;28;20554;-72
2021/11/23 06:27:36;;;;;;;11.43;7.53;;;4.90;99.90;;;;;;5065546;28;20457;-70
2021/11/23 06:30:05;;;;;;;16.50;6.70;;;4.90;99.90;;;;;;5073802;28;20566;-71
2021/11/23 06:32:32;;;;;;;7.00;6.40;;;4.90;99.90;;;;;;5064631;28;20470;-72
2021/11/23 06:34:59;;;;;;;16.07;7.67;;;5.00;99.90;;;;;;5069566;28;20439;-68
2021/11/23 06:37:26;;;;;;;11.50;6.30;;;4.90;99.90;;;;;;5063990;28;20448;-70
2021/11/23 06:39:54;;;;;;;10.97;7.27;;;4.90;99.90;;;;;;5066737;28;20493;-66
2021/11/23 06:42:21;;;;;;;11.03;8.27;;;4.90;99.90;;;;;;5064518;28;20466;-72
2021/11/23 06:44:49;;;;;;;14.10;7.30;;;4.90;99.90;;;;;;5074767;28;20554;-69
2021/11/23 06:47:16;;;;;;;10.73;8.87;;;4.90;99.90;;;;;;5070965;28;20454;-69
2021/11/23 06:49:43;;;;;;;10.90;7.00;;;4.80;99.90;;;;;;5073169;28;20822;-69
2021/11/23 06:52:10;;;;;;;9.10;5.50;;;4.80;99.90;;;;;;5074748;28;20457;-70
2021/11/23 06:54:38;;;;;;;16.93;7.00;;;4.90;99.90;;;;;;5075678;28;20727;-69
2021/11/23 06:57:07;;;;;;;9.93;7.53;;;4.70;99.90;;;;;;5068628;28;20472;-70
2021/11/23 06:59:34;;;;;;;12.17;4.80;;;4.70;99.90;;;;;;5071734;28;20501;-67
2021/11/23 07:02:01;;;;;;;14.93;7.70;;;4.90;99.90;;;;;;5073798;28;20436;-70
2021/11/23 07:04:28;;;;;;;15.83;8.87;;;4.90;99.90;;;;;;5072877;28;24262;-69
2021/11/23 07:06:55;;;;;;;8.90;7.10;;;5.00;99.90;;;;;;5063874;28;20449;-68
2021/11/23 07:09:22;;;;;;;8.40;5.17;;;5.00;99.90;;;;;;5079349;28;20971;-69
2021/11/23 07:11:49;;;;;;;11.33;5.77;;;4.80;99.90;;;;;;5070025;28;20444;-69
2021/11/23 07:14:17;;;;;;;8.80;6.03;;;4.80;99.90;;;;;;5075695;28;20838;-68
2021/11/23 07:16:45;;;;;;;17.50;7.53;;;4.70;99.90;;;;;;5075542;28;21414;-70
2021/11/23 07:19:12;;;;;;;12.67;7.20;;;4.60;99.90;;;;;;5075509;28;20994;-70
2021/11/23 07:21:39;;;;;;;13.93;8.33;;;4.60;99.90;;;;;;5073098;28;20429;-69
2021/11/23 07:24:06;;;;;;;16.00;6.20;;;4.70;99.90;;;;;;5071317;28;21533;-67
2021/11/23 07:26:37;;;;;;;11.00;5.53;;;4.70;99.90;;;;;;5079227;28;20462;-68
2021/11/23 07:29:05;;;;;;;7.13;4.83;;;4.70;99.90;;;;;;5074204;28;20959;-67
2021/11/23 07:31:33;;;;;;;23.10;8.60;;;4.70;99.90;;;;;;5072840;28;20947;-71
2021/11/23 07:34:00;;;;;;;15.17;8.00;;;4.70;99.90;;;;;;5069888;28;20471;-69
2021/11/23 07:36:28;;;;;;;5.70;4.30;;;4.60;99.90;;;;;;5068714;28;21112;-69
2021/11/23 07:38:57;;;;;;;9.20;6.77;;;4.60;99.90;;;;;;5076843;28;20822;-67
2021/11/23 07:41:24;;;;;;;12.47;5.93;;;4.80;99.90;;;;;;5068215;28;20421;-70
2021/11/23 07:43:51;;;;;;;7.90;5.77;;;4.90;99.90;;;;;;5071071;28;20834;-67
2021/11/23 07:46:19;;;;;;;14.37;7.30;;;4.80;99.90;;;;;;5078051;28;20432;-71
2021/11/23 07:48:47;;;;;;;14.63;7.70;;;4.80;99.90;;;;;;5086608;28;20453;-69
2021/11/23 07:51:14;;;;;;;3.00;2.30;;;4.90;99.90;;;;;;5088471;28;20550;-68
2021/11/23 07:53:42;;;;;;;14.53;9.70;;;4.90;99.90;;;;;;5085955;28;20506;-70
2021/11/23 07:56:09;;;;;;;22.03;8.33;;;4.80;99.90;;;;;;5081195;28;20461;-70
2021/11/23 07:58:36;;;;;;;13.07;8.17;;;4.80;99.90;;;;;;5076628;28;20862;-69
2021/11/23 08:01:04;;;;;;;10.17;6.77;;;4.80;99.90;;;;;;5077690;28;20458;-69
2021/11/23 08:03:31;;;;;;;17.00;9.33;;;4.90;99.90;;;;;;5082333;28;20847;-70
2021/11/23 08:05:59;;;;;;;17.87;8.63;;;4.90;99.90;;;;;;5080257;28;20454;-69
2021/11/23 08:08:28;;;;;;;21.27;7.73;;;4.80;99.90;;;;;;5076250;28;20805;-72
2021/11/23 08:10:57;;;;;;;7.17;5.17;;;4.80;99.90;;;;;;5070292;28;20523;-70
2021/11/23 08:13:24;;;;;;;11.97;7.90;;;5.00;99.90;;;;;;5071982;28;20488;-71
2021/11/23 08:15:51;;;;;;;14.37;8.40;;;5.00;99.90;;;;;;5076213;28;20456;-69
2021/11/23 08:18:19;;;;;;;15.40;8.10;;;4.80;99.90;;;;;;5078518;28;20446;-68
2021/11/23 08:20:47;;;;;;;17.70;6.60;;;4.80;99.90;;;;;;5080407;28;20476;-69
2021/11/23 08:23:16;;;;;;;15.67;9.57;;;4.80;99.90;;;;;;5068744;28;20440;-68
2021/11/23 08:25:44;;;;;;;19.33;8.37;;;4.90;99.90;;;;;;5074522;28;20469;-72
2021/11/23 08:28:11;;;;;;;13.97;8.37;;;4.90;99.90;;;;;;5079693;28;20862;-69
2021/11/23 08:30:38;;;;;;;8.73;4.53;;;5.00;99.90;;;;;;5074679;28;20448;-68
2021/11/23 08:33:05;;;;;;;14.97;7.63;;;5.10;99.90;;;;;;5062162;28;20502;-70
2021/11/23 08:35:32;;;;;;;11.73;7.77;;;5.00;99.90;;;;;;5073416;28;21464;-68
2021/11/23 08:37:59;;;;;;;16.73;9.40;;;5.10;99.90;;;;;;5070340;28;20444;-69
2021/11/23 08:40:27;;;;;;;23.63;8.63;;;5.10;99.90;;;;;;5073811;28;20488;-68
2021/11/23 08:42:54;;;;;;;18.67;10.07;;;5.10;99.90;;;;;;5072689;28;20895;-67
2021/11/23 08:45:22;;;;;;;10.70;8.00;;;5.20;99.90;;;;;;5074292;28;20452;-68
2021/11/23 08:47:49;;;;;;;19.70;10.07;;;5.20;99.90;;;;;;5069006;28;20460;-69
2021/11/23 08:50:18;;;;;;;25.50;8.80;;;5.20;99.90;;;;;;5070136;28;20875;-68
2021/11/23 08:52:45;;;;;;;17.13;10.23;;;5.20;99.90;;;;;;5070831;28;20488;-70
2021/11/23 08:55:13;;;;;;;26.27;11.40;;;5.30;99.90;;;;;;5070945;28;20444;-68
2021/11/23 08:57:42;;;;;;;20.60;9.93;;;5.40;99.90;;;;;;5076262;28;20466;-70
2021/11/23 09:00:14;;;;;;;12.83;7.60;;;5.50;99.90;;;;;;5070271;28;20464;-67
2021/11/23 09:02:42;;;;;;;15.80;9.03;;;5.50;99.90;;;;;;5071761;28;21123;-68
2021/11/23 09:05:13;;;;;;;13.37;7.33;;;5.50;99.90;;;;;;5063202;28;20981;-68
2021/11/23 09:07:41;;;;;;;16.80;9.57;;;5.40;99.90;;;;;;5077439;28;20410;-70
2021/11/23 09:10:15;;;;;;;10.73;5.90;;;5.20;99.90;;;;;;5071426;28;20493;-70
2021/11/23 09:12:43;;;;;;;12.27;7.07;;;5.30;99.90;;;;;;5069914;28;20474;-69
2021/11/23 09:15:10;;;;;;;20.97;9.07;;;5.20;99.90;;;;;;5074445;28;20801;-67
2021/11/23 09:17:38;;;;;;;16.77;8.53;;;5.30;99.90;;;;;;5082877;28;20824;-68
2021/11/23 09:20:06;;;;;;;16.10;7.97;;;5.50;99.90;;;;;;5077992;28;20477;-70
2021/11/23 09:22:33;;;;;;;10.20;6.67;;;5.50;99.90;;;;;;5071869;28;20468;-68
2021/11/23 09:25:00;;;;;;;10.53;5.93;;;5.50;99.90;;;;;;5072802;28;20516;-68
2021/11/23 09:27:27;;;;;;;15.17;7.27;;;5.60;99.90;;;;;;5071774;28;20460;-68
2021/11/23 09:29:56;;;;;;;16.33;8.37;;;5.50;99.90;;;;;;5066712;28;20826;-67
2021/11/23 09:32:23;;;;;;;15.87;10.20;;;5.40;99.90;;;;;;5071192;28;21059;-66
2021/11/23 09:34:50;;;;;;;12.23;8.00;;;5.50;99.90;;;;;;5073706;28;20806;-66
2021/11/23 09:37:17;;;;;;;14.40;9.13;;;5.50;99.90;;;;;;5076452;28;20464;-69
2021/11/23 09:39:44;;;;;;;15.83;11.33;;;5.50;99.90;;;;;;5074546;28;21286;-68
2021/11/23 09:42:11;;;;;;;17.00;8.23;;;5.60;99.90;;;;;;5066370;28;24813;-68
2021/11/23 09:44:40;;;;;;;17.70;8.43;;;5.70;99.90;;;;;;5076137;28;20436;-68
2021/11/23 09:47:09;;;;;;;14.30;7.93;;;5.80;99.90;;;;;;5077162;28;20464;-68
2021/11/23 09:49:36;;;;;;;11.50;5.43;;;5.90;99.90;;;;;;5070344;28;20514;-68
2021/11/23 09:52:03;;;;;;;3.47;2.77;;;5.90;99.90;;;;;;5074760;28;20490;-67
2021/11/23 09:54:30;;;;;;;19.50;9.73;;;5.70;99.90;;;;;;5075370;28;20848;-69
2021/11/23 09:56:58;;;;;;;16.73;9.60;;;5.60;99.90;;;;;;5068327;28;20937;-69
2021/11/23 09:59:25;;;;;;;9.43;7.87;;;5.70;99.90;;;;;;5072784;28;20513;-68
2021/11/23 10:01:55;;;;;;;14.53;6.43;;;5.70;99.90;;;;;;5074818;28;20510;-70
2021/11/23 10:04:25;;;;;;;13.40;9.67;;;5.80;99.90;;;;;;5074249;28;21019;-69
2021/11/23 10:06:54;;;;;;;11.43;6.27;;;5.80;99.90;;;;;;5075814;28;20603;-69
2021/11/23 10:09:33;;;;;;;7.43;5.47;;;5.90;99.90;;;;;;5072319;28;20436;-68
2021/11/23 10:12:17;;;;;;;17.23;8.90;;;5.80;99.90;;;;;;5070370;28;20661;-70
2021/11/23 10:15:12;;;;;;;17.97;8.83;;;5.90;99.90;;;;;;5061126;28;20527;-69
2021/11/23 10:17:41;;;;;;;22.33;9.67;;;5.90;99.90;;;;;;5074413;28;20424;-70
2021/11/23 10:20:28;;;;;;;20.17;10.23;;;6.00;99.90;;;;;;5073067;28;20469;-69
2021/11/23 10:22:56;;;;;;;16.40;8.60;;;6.00;99.90;;;;;;5076322;28;20449;-69
2021/11/23 10:25:29;;;;;;;22.80;10.43;;;6.00;99.90;;;;;;5073685;28;20424;-68
2021/11/23 10:27:56;;;;;;;14.77;10.47;;;6.10;99.90;;;;;;5069710;28;20467;-68
2021/11/23 10:30:24;;;;;;;16.37;9.50;;;6.10;99.90;;;;;;5078550;28;20613;-69
2021/11/23 10:32:53;;;;;;;18.27;10.70;;;6.20;99.90;;;;;;5076885;28;20443;-68
2021/11/23 10:35:23;;;;;;;19.13;5.97;;;6.30;99.90;;;;;;5075275;28;20461;-69
2021/11/23 10:37:51;;;;;;;20.30;13.20;;;6.40;99.90;;;;;;5074271;28;20930;-69
2021/11/23 10:40:23;;;;;;;5.73;3.87;;;6.30;99.90;;;;;;5072536;28;20997;-69
2021/11/23 10:42:52;;;;;;;18.10;9.37;;;6.30;99.90;;;;;;5074508;28;20449;-68
2021/11/23 10:45:19;;;;;;;21.33;10.20;;;6.30;99.90;;;;;;5068215;28;20458;-69
2021/11/23 10:47:50;;;;;;;11.70;7.50;;;6.40;99.90;;;;;;5076649;28;20432;-69
2021/11/23 10:50:19;;;;;;;12.23;5.77;;;6.30;99.90;;;;;;5071531;28;20451;-69
2021/11/23 10:52:50;;;;;;;18.93;8.80;;;6.40;99.90;;;;;;5061149;28;20691;-70
2021/11/23 10:55:29;;;;;;;17.00;10.50;;;6.40;99.90;;;;;;5075789;28;20937;-68
2021/11/23 10:57:58;;;;;;;21.67;12.23;;;6.30;99.90;;;;;;5073140;28;20462;-71
2021/11/23 11:00:28;;;;;;;17.00;10.53;;;6.30;99.90;;;;;;5074041;28;20485;-68
2021/11/23 11:02:59;;;;;;;6.27;5.10;;;6.30;99.90;;;;;;5068070;28;20577;-67
2021/11/23 11:05:28;;;;;;;18.27;9.07;;;6.40;99.90;;;;;;5071476;28;20446;-68
2021/11/23 11:07:57;;;;;;;12.10;5.50;;;6.60;99.90;;;;;;5079299;28;20420;-71
2021/11/23 11:10:25;;;;;;;17.60;6.27;;;6.70;99.90;;;;;;5078493;28;20482;-71
2021/11/23 11:12:52;;;;;;;20.57;9.70;;;6.60;99.90;;;;;;5077602;28;20581;-68
2021/11/23 11:15:24;;;;;;;15.70;10.70;;;6.60;99.90;;;;;;5078022;28;20450;-69
2021/11/23 11:17:51;;;;;;;21.67;13.90;;;6.50;99.90;;;;;;5087131;28;20464;-68
2021/11/23 11:20:38;;;;;;;30.10;11.37;;;6.50;99.90;;;;;;5075689;28;20512;-68
2021/11/23 11:23:09;;;;;;;33.23;13.40;;;6.50;99.90;;;;;;5075866;28;20851;-70
2021/11/23 11:28:45;;;;;;;26.53;11.97;;;6.70;99.90;;;;;;5077845;28;20473;-67
2021/11/23 11:31:37;;;;;;;21.40;11.00;;;6.80;99.90;;;;;;5076610;28;20446;-67
2021/11/23 11:34:22;;;;;;;10.40;6.50;;;6.90;99.90;;;;;;5079649;28;20444;-69
2021/11/23 11:36:59;;;;;;;27.00;10.30;;;6.90;99.90;;;;;;5077986;28;20940;-67
2021/11/23 11:39:58;;;;;;;22.70;9.53;;;6.80;99.90;;;;;;5079080;28;20450;-69
2021/11/23 11:42:55;;;;;;;28.23;11.73;;;7.00;99.90;;;;;;5078317;28;20437;-66
2021/11/23 11:45:25;;;;;;;22.50;10.57;;;7.00;99.90;;;;;;5061325;28;20491;-67
2021/11/23 11:47:55;;;;;;;34.27;15.53;;;7.00;99.90;;;;;;5074011;28;20439;-69
2021/11/23 11:50:28;;;;;;;29.23;12.30;;;7.00;99.90;;;;;;5079590;28;20621;-69
2021/11/23 11:53:15;;;;;;;24.00;11.70;;;7.10;99.90;;;;;;5073984;28;20479;-67
2021/11/23 11:55:50;;;;;;;42.70;13.73;;;7.10;99.90;;;;;;5076596;28;20486;-67
2021/11/23 11:58:45;;;;;;;21.20;11.27;;;7.10;99.90;;;;;;5067700;28;20425;-67
2021/11/23 12:01:33;;;;;;;18.03;9.70;;;7.10;99.90;;;;;;5075797;28;24324;-71
2021/11/23 12:04:13;;;;;;;19.70;11.63;;;7.20;99.90;;;;;;5071793;28;20924;-68
2021/11/23 12:07:10;;;;;;;20.00;9.10;;;7.30;99.90;;;;;;5084452;28;20488;-67
2021/11/23 12:09:40;;;;;;;22.70;8.63;;;7.30;99.90;;;;;;5078603;28;20481;-70
2021/11/23 12:12:41;;;;;;;22.00;11.23;;;7.20;99.90;;;;;;5081894;28;20436;-70
2021/11/23 12:15:23;;;;;;;21.73;12.97;;;7.20;99.90;;;;;;5058876;28;20462;-69
2021/11/23 12:18:21;;;;;;;15.87;9.20;;;7.10;99.90;;;;;;5081213;28;20469;-68
2021/11/23 12:21:02;;;;;;;32.03;10.57;;;7.00;99.90;;;;;;5014737;28;20472;-67
2021/11/23 12:23:40;;;;;;;36.23;12.37;;;7.00;99.90;;;;;;5075810;28;20466;-71
2021/11/23 12:26:11;;;;;;;12.00;7.57;;;7.10;99.90;;;;;;5077620;28;20512;-70
2021/11/23 12:28:40;;;;;;;29.33;10.90;;;7.10;99.90;;;;;;5080486;28;20484;-70
2021/11/23 12:31:10;;;;;;;29.20;11.80;;;7.00;99.90;;;;;;5076649;28;20569;-67
2021/11/23 12:33:47;;;;;;;37.20;13.53;;;7.10;99.90;;;;;;5072694;28;20469;-67
2021/11/23 12:36:18;;;;;;;36.57;13.43;;;7.20;99.90;;;;;;5077180;28;20472;-67
2021/11/23 12:38:46;;;;;;;23.67;12.33;;;7.00;99.90;;;;;;5080614;28;20523;-67
2021/11/23 12:41:17;;;;;;;34.33;14.73;;;7.20;99.90;;;;;;5068086;28;20593;-72
2021/11/23 12:43:47;;;;;;;30.33;10.00;;;7.10;99.90;;;;;;5078570;28;20454;-70
2021/11/23 12:46:17;;;;;;;25.87;11.00;;;7.20;99.90;;;;;;5076513;28;20433;-69
2021/11/23 12:48:45;;;;;;;30.43;12.70;;;7.10;99.90;;;;;;5070797;28;20460;-68
2021/11/23 12:51:29;;;;;;;44.73;14.97;;;7.00;99.90;;;;;;5077714;28;20465;-69
2021/11/23 12:54:02;;;;;;;29.07;13.77;;;7.10;99.90;;;;;;5076177;28;20608;-68
2021/11/23 12:56:51;;;;;;;34.87;13.17;;;7.00;99.90;;;;;;5075294;28;20451;-67
2021/11/23 12:59:45;;;;;;;29.97;12.70;;;7.00;99.90;;;;;;5078649;28;20623;-69
2021/11/23 13:02:28;;;;;;;20.07;12.23;;;7.10;99.90;;;;;;5061701;28;20606;-71
2021/11/23 13:04:57;;;;;;;30.27;12.23;;;7.00;99.90;;;;;;5071831;28;21223;-68